Time;durP1;ratioP1;P1;durP2;ratioP2;P2;SDS_P1;SDS_P2;PMS_P1;PMS_P2;Temp;Humidity;BMP_temperature;BMP_pressure;BME280_temperature;BME280_humidity;BME280_pressure;Samples;Min_cycle;Max_cycle;Signal;HPM_P1;HPM_P2
2022/07/05 00:00:54;;;;;;;7.47;4.70;;;;;;;16.45;100.00;95804.59;5053990;28;20044;-80
2022/07/05 00:03:20;;;;;;;6.88;4.68;;;;;;;16.41;100.00;95799.09;5048320;28;20038;-81
2022/07/05 00:05:46;;;;;;;7.47;4.72;;;;;;;16.41;100.00;95803.63;5033067;28;20045;-80
2022/07/05 00:08:12;;;;;;;11.65;5.03;;;;;;;16.44;100.00;95798.50;5050280;28;20048;-81
2022/07/05 00:10:37;;;;;;;7.55;4.82;;;;;;;16.46;100.00;95795.53;5032822;28;20045;-80
2022/07/05 00:13:04;;;;;;;6.90;4.05;;;;;;;16.41;100.00;95799.09;5035178;28;20040;-80
2022/07/05 00:15:30;;;;;;;7.25;4.53;;;;;;;16.40;100.00;95797.50;5035604;28;20041;-81
2022/07/05 00:17:55;;;;;;;10.57;4.78;;;;;;;16.34;100.00;95793.41;5050155;28;20047;-80
2022/07/05 00:20:21;;;;;;;9.57;4.75;;;;;;;16.40;100.00;95800.16;5053939;28;20048;-80
2022/07/05 00:22:47;;;;;;;7.50;4.68;;;;;;;16.39;100.00;95795.97;5052726;28;20044;-80
2022/07/05 00:25:12;;;;;;;8.27;4.80;;;;;;;16.45;100.00;95793.97;5043975;28;20037;-81
2022/07/05 00:27:38;;;;;;;7.05;3.90;;;;;;;16.46;100.00;95790.22;5053154;28;20045;-80
2022/07/05 00:30:05;;;;;;;8.10;4.28;;;;;;;16.36;100.00;95796.53;5034531;28;20033;-81
2022/07/05 00:32:30;;;;;;;8.68;4.45;;;;;;;16.38;100.00;95796.25;5049835;28;20037;-80
2022/07/05 00:34:56;;;;;;;12.65;3.70;;;;;;;16.33;100.00;95801.66;5032721;28;20087;-81
2022/07/05 00:37:21;;;;;;;8.35;3.90;;;;;;;16.35;100.00;95805.59;5052786;28;20040;-81
2022/07/05 00:39:47;;;;;;;8.05;3.80;;;;;;;16.30;100.00;95797.75;5051491;28;20045;-80
2022/07/05 00:42:12;;;;;;;8.90;4.03;;;;;;;16.32;100.00;95794.78;5052519;28;20044;-80
2022/07/05 00:44:41;;;;;;;6.38;3.80;;;;;;;16.28;100.00;95795.38;5034037;28;20450;-81
2022/07/05 00:47:10;;;;;;;11.60;4.07;;;;;;;16.32;100.00;95792.13;5043621;28;20124;-83
2022/07/05 00:49:37;;;;;;;8.65;3.72;;;;;;;16.16;100.00;95781.84;5044428;28;20044;-82
2022/07/05 00:52:04;;;;;;;10.43;4.30;;;;;;;16.13;100.00;95784.31;5033552;28;20561;-81
2022/07/05 00:54:35;;;;;;;8.60;4.05;;;;;;;16.10;100.00;95777.72;5051637;28;20041;-82
2022/07/05 00:57:01;;;;;;;9.68;4.28;;;;;;;16.09;100.00;95776.13;5049511;28;20048;-81
2022/07/05 00:59:27;;;;;;;8.70;4.25;;;;;;;16.05;100.00;95775.97;5032284;28;20053;-81
2022/07/05 01:01:53;;;;;;;8.63;4.40;;;;;;;16.07;100.00;95763.16;5033353;28;20049;-81
2022/07/05 01:04:19;;;;;;;9.30;4.20;;;;;;;16.01;100.00;95750.31;5052457;28;20120;-79
2022/07/05 01:06:47;;;;;;;9.88;4.72;;;;;;;15.99;100.00;95769.19;5033694;28;20044;-79
2022/07/05 01:09:15;;;;;;;11.93;4.75;;;;;;;16.06;100.00;95772.22;5052355;28;20047;-79
2022/07/05 01:11:43;;;;;;;11.77;4.75;;;;;;;16.07;100.00;95763.16;5050754;28;20033;-80
2022/07/05 01:14:11;;;;;;;10.57;5.03;;;;;;;16.01;100.00;95756.41;5034215;28;20059;-80
2022/07/05 01:16:40;;;;;;;9.70;5.03;;;;;;;16.06;100.00;95756.31;5052075;28;20045;-79
2022/07/05 01:19:06;;;;;;;11.48;5.25;;;;;;;15.90;100.00;95753.19;5050398;28;20037;-79
2022/07/05 01:21:37;;;;;;;10.80;5.45;;;;;;;16.02;100.00;95771.25;5051816;28;20511;-79
2022/07/05 01:24:03;;;;;;;11.45;5.50;;;;;;;15.95;100.00;95762.91;5050832;28;20052;-80
2022/07/05 01:26:30;;;;;;;10.63;5.53;;;;;;;15.95;100.00;95770.88;5033030;28;20037;-80
2022/07/05 01:28:56;;;;;;;8.77;4.82;;;;;;;16.01;100.00;95780.28;5049231;28;20033;-80
2022/07/05 01:31:21;;;;;;;7.88;5.00;;;;;;;16.02;100.00;95765.94;5030005;28;20048;-80
2022/07/05 01:33:47;;;;;;;13.02;4.63;;;;;;;15.96;100.00;95761.81;5051348;28;20053;-80
2022/07/05 01:36:13;;;;;;;9.30;5.57;;;;;;;16.00;100.00;95765.44;5032639;28;20386;-81
2022/07/05 01:38:39;;;;;;;10.60;5.07;;;;;;;15.98;100.00;95772.16;5050647;28;20502;-80
2022/07/05 01:41:05;;;;;;;9.88;5.15;;;;;;;15.93;100.00;95762.41;5044154;28;20041;-80
2022/07/05 01:43:30;;;;;;;11.35;5.60;;;;;;;16.02;100.00;95755.31;5048765;28;20044;-81
2022/07/05 01:45:56;;;;;;;11.30;5.53;;;;;;;16.01;100.00;95769.66;5032841;28;20627;-80
2022/07/05 01:48:22;;;;;;;12.57;6.00;;;;;;;15.97;100.00;95760.72;5030085;28;20033;-81
2022/07/05 01:50:53;;;;;;;10.55;5.95;;;;;;;16.06;100.00;95758.97;5046782;28;20477;-81
2022/07/05 01:53:24;;;;;;;8.93;5.18;;;;;;;16.04;100.00;95758.44;5032822;28;20116;-81
2022/07/05 01:55:50;;;;;;;10.73;5.40;;;;;;;16.17;100.00;95766.69;5050142;28;20049;-81
2022/07/05 01:58:16;;;;;;;13.10;5.82;;;;;;;16.24;100.00;95756.44;5047507;28;20048;-81
2022/07/05 02:00:43;;;;;;;9.48;5.10;;;;;;;16.18;100.00;95768.28;5032667;28;20127;-80
2022/07/05 02:03:11;;;;;;;9.05;5.22;;;;;;;16.15;100.00;95774.97;5039342;28;20041;-81
2022/07/05 02:05:37;;;;;;;9.23;6.20;;;;;;;16.05;100.00;95770.66;5030373;28;20102;-81
2022/07/05 02:08:02;;;;;;;9.35;5.68;;;;;;;16.12;100.00;95770.25;5030809;28;20041;-81
2022/07/05 02:10:28;;;;;;;10.60;5.25;;;;;;;16.04;100.00;95769.06;5040710;28;20044;-81
2022/07/05 02:12:53;;;;;;;17.00;5.50;;;;;;;16.00;100.00;95773.41;5046659;28;20041;-82
2022/07/05 02:15:19;;;;;;;8.70;5.70;;;;;;;15.98;100.00;95775.56;5032478;28;20442;-82
2022/07/05 02:17:44;;;;;;;12.57;5.68;;;;;;;15.96;100.00;95777.75;5025359;28;20497;-81
2022/07/05 02:20:10;;;;;;;7.05;5.20;;;;;;;15.90;100.00;95765.66;5048302;28;20033;-82
2022/07/05 02:22:35;;;;;;;7.20;5.07;;;;;;;15.88;100.00;95775.78;5031602;28;20041;-82
2022/07/05 02:25:01;;;;;;;8.60;5.35;;;;;;;15.92;100.00;95787.38;5050160;28;20049;-81
2022/07/05 02:27:27;;;;;;;10.00;5.25;;;;;;;15.86;100.00;95777.94;5030030;28;20045;-81
2022/07/05 02:29:52;;;;;;;9.13;5.65;;;;;;;15.84;100.00;95775.56;5031230;28;20208;-82
2022/07/05 02:32:18;;;;;;;10.75;5.85;;;;;;;15.76;100.00;95774.38;5031409;28;20037;-82
2022/07/05 02:34:43;;;;;;;11.65;5.57;;;;;;;15.79;100.00;95777.53;5032393;28;20091;-81
2022/07/05 02:37:08;;;;;;;8.30;5.20;;;;;;;15.80;100.00;95787.09;5041838;28;20036;-81
2022/07/05 02:39:34;;;;;;;12.35;6.00;;;;;;;15.73;100.00;95774.97;5047292;28;20055;-82
2022/07/05 02:41:59;;;;;;;9.40;5.50;;;;;;;15.69;100.00;95774.00;5032130;28;20163;-81
2022/07/05 02:44:25;;;;;;;11.13;5.78;;;;;;;15.74;100.00;95781.06;5049878;28;20036;-81
2022/07/05 02:46:50;;;;;;;14.85;6.00;;;;;;;15.70;100.00;95772.91;5032862;28;20033;-81
2022/07/05 02:49:16;;;;;;;9.60;5.60;;;;;;;15.70;100.00;95780.88;5030393;28;20055;-81
2022/07/05 02:51:41;;;;;;;12.30;6.07;;;;;;;15.67;100.00;95781.44;5029751;28;20044;-81
2022/07/05 02:54:07;;;;;;;9.00;5.75;;;;;;;15.68;100.00;95785.69;5037210;28;20042;-81
2022/07/05 02:56:32;;;;;;;16.10;6.05;;;;;;;15.69;100.00;95784.59;5031150;28;20052;-81
2022/07/05 02:58:57;;;;;;;12.43;5.45;;;;;;;15.58;100.00;95777.91;5048626;28;20598;-81
2022/07/05 03:01:23;;;;;;;9.02;5.20;;;;;;;15.62;100.00;95773.59;5050534;28;20060;-81
2022/07/05 03:03:48;;;;;;;7.75;5.07;;;;;;;15.63;100.00;95775.19;5031524;28;20059;-81
2022/07/05 03:06:14;;;;;;;8.13;4.65;;;;;;;15.59;100.00;95779.50;5031927;28;20043;-81
2022/07/05 03:08:41;;;;;;;10.63;5.18;;;;;;;15.58;100.00;95777.91;5049013;28;20052;-81
2022/07/05 03:11:06;;;;;;;9.15;4.95;;;;;;;15.51;100.00;95780.19;5042880;28;20536;-81
2022/07/05 03:13:32;;;;;;;8.90;5.10;;;;;;;15.51;100.00;95782.81;5031746;28;20041;-81
2022/07/05 03:15:58;;;;;;;10.48;4.78;;;;;;;15.51;100.00;95780.19;5050418;28;20041;-80
2022/07/05 03:18:23;;;;;;;8.52;5.03;;;;;;;15.53;100.00;95785.97;5049316;28;20090;-81
2022/07/05 03:20:49;;;;;;;9.85;5.57;;;;;;;15.51;100.00;95782.81;5030683;28;20044;-81
2022/07/05 03:23:14;;;;;;;13.48;5.25;;;;;;;15.51;100.00;95788.13;5031868;28;20048;-81
2022/07/05 03:25:40;;;;;;;9.32;5.50;;;;;;;15.50;100.00;95782.06;5032579;28;20608;-80
2022/07/05 03:28:05;;;;;;;11.88;5.30;;;;;;;15.55;100.00;95786.47;5050405;28;20460;-80
2022/07/05 03:30:31;;;;;;;10.52;5.25;;;;;;;15.51;100.00;95788.13;5042488;28;20053;-81
2022/07/05 03:32:56;;;;;;;14.00;5.55;;;;;;;15.50;100.00;95787.34;5032242;28;20060;-80
2022/07/05 03:35:21;;;;;;;10.48;5.07;;;;;;;15.45;100.00;95778.72;5030970;28;20036;-81
2022/07/05 03:37:47;;;;;;;8.30;5.28;;;;;;;15.48;100.00;95794.81;5029198;28;20041;-81
2022/07/05 03:40:13;;;;;;;8.48;5.07;;;;;;;15.40;100.00;95788.31;5042436;28;20483;-82
2022/07/05 03:42:38;;;;;;;14.50;5.72;;;;;;;15.41;100.00;95792.56;5048968;28;20115;-82
2022/07/05 03:45:04;;;;;;;11.73;5.45;;;;;;;15.41;100.00;95794.41;5031349;28;20068;-81
2022/07/05 03:47:30;;;;;;;8.98;5.30;;;;;;;15.41;100.00;95794.41;5028214;28;20045;-82
2022/07/05 03:49:55;;;;;;;10.65;5.45;;;;;;;15.40;100.00;95796.28;5047126;28;20093;-81
2022/07/05 03:52:21;;;;;;;10.73;5.72;;;;;;;15.32;100.00;95796.94;5028959;28;20094;-81
2022/07/05 03:54:47;;;;;;;11.07;5.38;;;;;;;15.30;100.00;95793.81;5049166;28;20045;-80
2022/07/05 03:57:13;;;;;;;10.23;5.68;;;;;;;15.23;100.00;95788.88;5044331;28;20479;-79
2022/07/05 03:59:38;;;;;;;9.57;5.47;;;;;;;15.24;100.00;95794.97;5024852;28;20041;-81
2022/07/05 04:02:04;;;;;;;14.00;5.70;;;;;;;15.19;100.00;95787.13;5039216;28;20043;-80
2022/07/05 04:04:29;;;;;;;9.48;5.75;;;;;;;15.24;100.00;95806.38;5037653;28;20506;-80
2022/07/05 04:06:55;;;;;;;10.02;5.90;;;;;;;15.23;100.00;95798.72;5050697;28;20047;-80
2022/07/05 04:09:20;;;;;;;11.52;5.20;;;;;;;15.19;100.00;95795.06;5053227;28;20052;-80
2022/07/05 04:11:46;;;;;;;11.05;5.50;;;;;;;15.24;100.00;95794.97;5034580;28;20077;-80
2022/07/05 04:14:11;;;;;;;8.18;5.32;;;;;;;15.29;100.00;95808.16;5031986;28;20037;-80
2022/07/05 04:16:37;;;;;;;8.73;5.20;;;;;;;15.28;100.00;95801.25;5035582;28;20029;-79
2022/07/05 04:19:03;;;;;;;8.98;5.18;;;;;;;15.23;100.00;95804.00;5049474;28;20095;-80
2022/07/05 04:21:28;;;;;;;9.32;5.47;;;;;;;15.19;100.00;95808.31;5052892;28;20415;-80
2022/07/05 04:23:54;;;;;;;9.95;6.00;;;;;;;15.22;100.00;95815.69;5052167;28;20045;-80
2022/07/05 04:26:19;;;;;;;11.48;6.55;;;;;;;15.22;100.00;95813.03;5052183;28;20101;-81
2022/07/05 04:28:45;;;;;;;15.63;6.00;;;;;;;15.30;100.00;95809.72;5038184;28;20044;-80
2022/07/05 04:31:10;;;;;;;9.82;5.53;;;;;;;15.39;100.00;95804.53;5034702;28;20045;-80
2022/07/05 04:33:36;;;;;;;10.80;5.50;;;;;;;15.45;100.00;95816.63;5034525;28;20037;-80
2022/07/05 04:36:01;;;;;;;10.13;6.00;;;;;;;15.47;100.00;95816.31;5050613;28;20048;-80
2022/07/05 04:38:27;;;;;;;9.63;5.32;;;;;;;15.42;100.00;95812.66;5033975;28;20422;-81
2022/07/05 04:40:52;;;;;;;9.07;5.38;;;;;;;15.47;100.00;95818.97;5049842;28;20041;-81
2022/07/05 04:43:18;;;;;;;9.38;5.60;;;;;;;15.47;100.00;95818.97;5051874;28;20595;-82
2022/07/05 04:45:43;;;;;;;10.95;5.40;;;;;;;15.51;100.00;95814.66;5033966;28;20560;-81
2022/07/05 04:48:09;;;;;;;10.65;5.78;;;;;;;15.59;100.00;95827.25;5050812;28;20045;-81
2022/07/05 04:50:35;;;;;;;11.60;5.32;;;;;;;15.70;100.00;95822.53;5051428;28;20525;-80
2022/07/05 04:53:01;;;;;;;10.93;5.15;;;;;;;15.74;100.00;95824.28;5034139;28;20052;-81
2022/07/05 04:55:26;;;;;;;10.70;4.78;;;;;;;15.81;100.00;95820.50;5034070;28;20175;-81
2022/07/05 04:57:52;;;;;;;9.65;4.45;;;;;;;15.82;100.00;95819.44;5032632;28;20069;-80
2022/07/05 05:00:17;;;;;;;8.25;4.43;;;;;;;15.77;100.00;95813.13;5051210;28;20049;-80
2022/07/05 05:02:42;;;;;;;9.30;4.65;;;;;;;15.77;100.00;95817.63;5025367;28;20041;-81
2022/07/05 05:05:08;;;;;;;8.43;4.97;;;;;;;15.81;100.00;95817.84;5050916;28;20047;-80
2022/07/05 05:07:35;;;;;;;8.57;4.85;;;;;;;15.86;100.00;95820.41;5032409;28;20041;-81
2022/07/05 05:10:00;;;;;;;6.80;4.50;;;;;;;15.87;100.00;95814.00;5030460;28;20041;-80
2022/07/05 05:12:26;;;;;;;7.90;4.25;;;;;;;15.89;100.00;95810.00;5033302;28;20796;-81
2022/07/05 05:14:51;;;;;;;8.65;4.30;;;;;;;15.95;100.00;95808.03;5046688;28;20049;-81
2022/07/05 05:17:17;;;;;;;9.15;4.80;;;;;;;15.93;100.00;95815.47;5033084;28;20414;-79
2022/07/05 05:19:44;;;;;;;7.63;4.13;;;;;;;16.05;100.00;95813.13;5049208;28;20112;-78
2022/07/05 05:22:10;;;;;;;7.82;4.43;;;;;;;16.00;100.00;95810.56;5051166;28;20037;-78
2022/07/05 05:24:35;;;;;;;6.88;4.57;;;;;;;16.07;100.00;95810.94;5051759;28;20147;-80
2022/07/05 05:27:01;;;;;;;9.25;4.63;;;;;;;16.24;100.00;95814.88;5033693;28;20128;-79
2022/07/05 05:29:27;;;;;;;9.38;5.47;;;;;;;16.25;100.00;95817.22;5050267;28;20103;-80
2022/07/05 05:31:52;;;;;;;7.65;4.68;;;;;;;16.25;100.00;95817.22;5051188;28;20037;-80
2022/07/05 05:34:18;;;;;;;12.13;4.75;;;;;;;16.36;100.00;95823.09;5050229;28;20080;-80
2022/07/05 05:36:43;;;;;;;8.30;4.53;;;;;;;16.45;100.00;95816.00;5050715;28;20040;-79
2022/07/05 05:39:09;;;;;;;8.45;4.57;;;;;;;16.46;100.00;95816.78;5045828;28;20048;-79
2022/07/05 05:41:35;;;;;;;8.90;4.80;;;;;;;16.51;100.00;95808.72;5031374;28;20502;-79
2022/07/05 05:44:01;;;;;;;9.13;4.80;;;;;;;16.53;100.00;95813.72;5050811;28;20067;-79
2022/07/05 05:46:26;;;;;;;8.48;4.93;;;;;;;16.60;100.00;95806.13;5051023;28;20430;-79
2022/07/05 05:48:52;;;;;;;8.63;5.03;;;;;;;16.71;100.00;95818.09;5047481;28;20033;-79
2022/07/05 05:51:18;;;;;;;7.85;5.05;;;;;;;16.74;100.00;95814.84;5051673;28;20041;-78
2022/07/05 05:53:45;;;;;;;12.07;5.13;;;;;;;16.83;100.00;95816.78;5051157;28;20037;-78
2022/07/05 05:56:12;;;;;;;10.20;5.30;;;;;;;16.82;100.00;95817.84;5050529;28;20410;-78
2022/07/05 05:58:37;;;;;;;10.85;5.68;;;;;;;16.83;100.00;95830.84;5050457;28;20052;-79
2022/07/05 06:01:03;;;;;;;18.45;6.30;;;;;;;16.79;100.00;95830.66;5052958;28;20036;-80
2022/07/05 06:03:28;;;;;;;11.05;6.32;;;;;;;16.92;100.00;95828.28;5037213;28;20041;-79
2022/07/05 06:05:54;;;;;;;10.63;6.03;;;;;;;16.84;100.00;95834.28;5045595;28;20047;-79
2022/07/05 06:08:20;;;;;;;11.18;6.20;;;;;;;16.99;100.00;95831.28;5054282;28;20045;-80
2022/07/05 06:10:46;;;;;;;14.15;6.80;;;;;;;17.08;100.00;95832.16;5032055;28;20049;-81
2022/07/05 06:13:13;;;;;;;17.63;7.47;;;;;;;17.22;100.00;95836.59;5052461;28;20044;-80
2022/07/05 06:15:39;;;;;;;19.98;8.30;;;;;;;17.17;100.00;95823.44;5035801;28;20045;-81
2022/07/05 06:18:07;;;;;;;12.32;7.75;;;;;;;17.35;100.00;95835.75;5053062;28;20052;-80
2022/07/05 06:20:35;;;;;;;14.88;7.85;;;;;;;17.40;100.00;95832.97;5034365;28;20045;-80
2022/07/05 06:23:02;;;;;;;15.45;7.90;;;;;;;17.54;100.00;95837.41;5051024;28;20045;-79
2022/07/05 06:25:29;;;;;;;17.65;7.95;;;;;;;17.54;100.00;95842.72;5054830;28;20083;-80
2022/07/05 06:28:00;;;;;;;12.40;8.23;;;;;;;17.60;100.00;95844.19;5053292;28;20049;-79
2022/07/05 06:30:27;;;;;;;15.85;8.38;;;;;;;17.51;100.00;95846.00;5055763;28;20037;-79
2022/07/05 06:32:54;;;;;;;18.50;8.95;;;;;;;17.60;100.00;95849.50;5036339;28;20041;-82
2022/07/05 06:35:20;;;;;;;15.63;8.73;;;;;;;17.60;100.00;95857.50;5051160;28;20041;-83
2022/07/05 06:37:49;;;;;;;19.75;9.75;;;;;;;17.55;100.00;95854.94;5053564;28;20064;-82
2022/07/05 06:40:20;;;;;;;16.73;8.50;;;;;;;17.65;100.00;95849.38;5053023;28;20036;-81
2022/07/05 06:42:46;;;;;;;17.55;9.38;;;;;;;17.58;100.00;95854.34;5038511;28;20033;-80
2022/07/05 06:45:11;;;;;;;21.30;9.18;;;;;;;17.88;100.00;95855.41;5056596;28;20466;-80
2022/07/05 06:47:38;;;;;;;14.27;8.73;;;;;;;17.94;100.00;95862.22;5056977;28;20044;-80
2022/07/05 06:50:05;;;;;;;17.27;9.18;;;;;;;17.82;100.00;95862.75;5053642;28;20063;-80
2022/07/05 06:52:32;;;;;;;13.43;8.32;;;;;;;18.05;100.00;95860.03;5044871;28;20106;-81
2022/07/05 06:55:02;;;;;;;18.40;8.05;;;;;;;18.24;100.00;95869.66;5032869;28;20045;-79
2022/07/05 06:57:27;;;;;;;18.13;7.45;;;;;;;18.25;100.00;95860.56;5053701;28;20649;-82
2022/07/05 06:59:53;;;;;;;14.05;7.43;;;;;;;18.33;100.00;95865.13;5055610;28;20041;-79
2022/07/05 07:02:19;;;;;;;12.40;7.28;;;;;;;18.46;100.00;95866.88;5060793;28;20060;-79
2022/07/05 07:04:46;;;;;;;12.07;7.40;;;;;;;18.37;100.00;95862.63;5016942;28;20053;-81
2022/07/05 07:09:57;;;;;;;13.60;7.68;;;;;;;18.28;100.00;95865.28;5051233;28;20136;-79
2022/07/05 07:12:23;;;;;;;12.57;8.23;;;;;;;18.32;100.00;95871.56;5055063;28;20040;-79
2022/07/05 07:14:48;;;;;;;15.07;8.10;;;;;;;18.26;100.00;95875.44;5032326;28;20033;-80
2022/07/05 07:17:14;;;;;;;13.27;7.65;;;;;;;18.55;100.00;95879.44;5055402;28;20051;-79
2022/07/05 07:19:39;;;;;;;10.27;7.00;;;;;;;18.66;100.00;95878.03;5052919;28;20041;-79
2022/07/05 07:22:05;;;;;;;12.07;7.05;;;;;;;18.63;100.00;95876.00;5052364;28;20064;-82
2022/07/05 07:24:30;;;;;;;11.50;7.30;;;;;;;18.59;100.00;95872.38;5052646;28;20041;-80
2022/07/05 07:27:04;;;;;;;12.27;7.53;;;;;;;18.58;100.00;95884.16;5053815;28;20044;-82
2022/07/05 07:29:32;;;;;;;11.73;7.25;;;;;;;18.51;100.00;95885.38;5041300;28;20064;-80
2022/07/05 07:31:58;;;;;;;11.90;7.50;;;;;;;18.61;100.00;95875.53;5036054;28;20044;-78
2022/07/05 07:34:24;;;;;;;10.90;6.90;;;;;;;18.62;100.00;95879.75;5056395;28;20048;-79
2022/07/05 07:36:51;;;;;;;13.77;7.25;;;;;;;18.76;100.00;95883.09;5036664;28;20047;-77
2022/07/05 07:39:16;;;;;;;10.32;5.47;;;;;;;19.06;100.00;95877.91;5056726;28;20124;-77
2022/07/05 07:41:42;;;;;;;16.02;7.57;;;;;;;19.31;100.00;95886.22;5039217;28;20087;-78
2022/07/05 07:44:08;;;;;;;14.15;7.50;;;;;;;19.40;100.00;95889.66;5038361;28;20037;-81
2022/07/05 07:46:33;;;;;;;13.00;7.32;;;;;;;19.39;100.00;95885.41;5050059;28;20045;-78
2022/07/05 07:48:59;;;;;;;10.65;6.88;;;;;;;19.50;100.00;95892.00;5054370;28;20083;-78
2022/07/05 07:51:24;;;;;;;9.93;6.60;;;;;;;19.42;100.00;95887.44;5056571;28;20114;-80
2022/07/05 07:53:50;;;;;;;14.27;7.20;;;;;;;19.20;100.00;95886.53;5056220;28;20036;-80
2022/07/05 07:56:17;;;;;;;12.07;7.10;;;;;;;19.12;100.00;95889.22;5058846;28;20033;-80
2022/07/05 07:58:43;;;;;;;11.65;6.65;;;;;;;19.03;100.00;95891.88;5041025;28;20051;-80
2022/07/05 08:01:10;;;;;;;13.63;6.80;;;;;;;19.03;100.00;95894.56;5060422;28;20033;-81
2022/07/05 08:03:38;;;;;;;10.27;6.47;;;;;;;19.06;100.00;95888.59;5055830;28;20045;-80
2022/07/05 08:06:03;;;;;;;10.27;6.78;;;;;;;19.34;100.00;95898.94;5054837;28;20077;-80
2022/07/05 08:08:28;;;;;;;10.85;6.65;;;;;;;19.66;100.00;95894.16;5053182;28;20037;-81
2022/07/05 08:10:54;;;;;;;13.35;7.13;;;;;;;19.73;100.00;95897.13;5054394;28;20127;-81
2022/07/05 08:13:19;;;;;;;14.48;6.18;;;;;;;19.69;100.00;95885.53;5057458;28;20040;-84
2022/07/05 08:15:45;;;;;;;9.30;6.07;;;;;;;19.71;100.00;95896.66;5049891;28;20041;-80
2022/07/05 08:23:39;;;;;;;9.43;5.45;;;;;;;19.82;100.00;95897.91;5054077;28;20091;-81
2022/07/05 08:26:04;;;;;;;10.73;5.25;;;;;;;19.77;100.00;95897.25;5050967;28;20037;-80
2022/07/05 08:28:30;;;;;;;10.85;5.80;;;;;;;19.63;100.00;95900.16;5050797;28;20053;-79
2022/07/05 08:30:55;;;;;;;11.48;5.20;;;;;;;19.66;100.00;95894.16;5040724;28;20414;-79
2022/07/05 08:33:21;;;;;;;8.95;5.47;;;;;;;19.71;100.00;95893.97;5053941;28;20045;-78
2022/07/05 08:35:46;;;;;;;7.60;4.40;;;;;;;19.75;98.74;95892.25;5051070;28;20101;-78
2022/07/05 08:38:12;;;;;;;7.85;4.97;;;;;;;19.63;100.00;95900.16;5055147;28;20106;-78
2022/07/05 08:40:43;;;;;;;7.53;4.85;;;;;;;19.63;100.00;95900.16;5032963;28;20068;-79
2022/07/05 08:43:10;;;;;;;10.20;5.30;;;;;;;19.73;100.00;95894.47;5049804;28;20037;-81
2022/07/05 08:45:37;;;;;;;5.90;4.38;;;;;;;19.75;99.71;95897.59;5035401;28;20064;-80
2022/07/05 08:48:04;;;;;;;8.45;4.45;;;;;;;19.79;100.00;95903.91;5031589;28;20084;-80
2022/07/05 08:50:30;;;;;;;10.25;4.90;;;;;;;19.59;95.15;95901.88;5035747;28;20552;-78
2022/07/05 08:52:57;;;;;;;7.15;4.20;;;;;;;19.64;86.49;95901.69;5025397;28;20041;-79
2022/07/05 08:55:23;;;;;;;10.00;4.43;;;;;;;19.73;99.29;95891.78;5053676;28;20048;-80
2022/07/05 08:57:49;;;;;;;6.38;4.20;;;;;;;19.76;97.09;95904.50;5033674;28;20052;-78
2022/07/05 09:00:15;;;;;;;15.60;4.22;;;;;;;19.87;87.09;95900.41;5051024;28;20112;-80
2022/07/05 09:02:41;;;;;;;5.55;3.70;;;;;;;19.88;76.62;95902.00;5035303;28;20041;-79
2022/07/05 09:05:07;;;;;;;7.93;3.97;;;;;;;19.85;79.87;95902.59;5051375;28;20037;-79
2022/07/05 09:07:36;;;;;;;10.00;4.78;;;;;;;19.59;89.47;95899.22;5047471;28;20433;-79
2022/07/05 09:10:03;;;;;;;10.00;3.90;;;;;;;19.67;84.67;95901.09;5028737;28;20052;-80
2022/07/05 09:12:29;;;;;;;8.38;4.75;;;;;;;19.66;92.98;95904.84;5053906;28;20037;-80
2022/07/05 09:14:55;;;;;;;8.13;3.92;;;;;;;19.89;75.79;95908.88;5055887;28;20067;-80
2022/07/05 09:17:21;;;;;;;5.55;4.13;;;;;;;19.82;84.71;95913.16;5039258;28;20041;-80
2022/07/05 09:20:09;;;;;;;8.32;3.45;;;;;;;19.76;76.25;95915.19;5052891;28;20041;-80
2022/07/05 09:22:43;;;;;;;4.70;3.42;;;;;;;19.81;85.07;95915.06;5051087;28;20045;-78
2022/07/05 09:25:34;;;;;;;10.03;4.13;;;;;;;20.03;86.78;95911.34;5053395;28;20041;-81
2022/07/05 09:28:04;;;;;;;8.20;3.60;;;;;;;20.17;78.79;95900.47;5037074;28;20460;-81
2022/07/05 09:30:37;;;;;;;7.13;4.05;;;;;;;20.03;86.83;95902.56;5039099;28;20530;-81
2022/07/05 09:33:04;;;;;;;8.90;3.72;;;;;;;20.50;74.19;95905.19;5043292;28;20041;-81
2022/07/05 09:35:31;;;;;;;9.32;4.30;;;;;;;20.57;82.58;95904.66;5036923;28;20045;-80
2022/07/05 09:37:56;;;;;;;5.78;3.63;;;;;;;20.82;69.92;95900.28;5043982;28;20048;-81
2022/07/05 09:40:22;;;;;;;5.40;3.60;;;;;;;20.81;73.61;95904.06;5037807;28;20041;-81
2022/07/05 09:42:47;;;;;;;6.97;3.70;;;;;;;20.65;71.41;95895.78;5056313;28;20047;-81
2022/07/05 09:45:22;;;;;;;9.02;4.13;;;;;;;20.68;81.42;95910.44;5057263;28;20033;-80
2022/07/05 09:47:48;;;;;;;7.15;3.53;;;;;;;21.10;81.37;95910.44;5049356;28;20041;-80
2022/07/05 09:50:13;;;;;;;4.85;3.33;;;;;;;21.03;65.75;95911.00;5053522;28;20037;-81
2022/07/05 09:52:41;;;;;;;6.40;3.15;;;;;;;21.11;67.89;95906.66;5038513;28;20543;-80
2022/07/05 09:55:09;;;;;;;4.30;3.13;;;;;;;21.06;72.94;95910.34;5061762;28;20732;-80
2022/07/05 09:57:36;;;;;;;8.55;3.38;;;;;;;21.49;72.13;95905.69;5038816;28;20556;-80
2022/07/05 10:00:11;;;;;;;6.07;3.65;;;;;;;21.47;68.57;95907.94;5047266;28;20041;-80
2022/07/05 10:02:42;;;;;;;7.32;3.40;;;;;;;21.50;74.43;95907.25;5049274;28;20558;-80
2022/07/05 10:05:09;;;;;;;7.60;3.63;;;;;;;21.44;65.17;95908.59;5042083;28;20526;-81
2022/07/05 10:07:36;;;;;;;5.72;3.35;;;;;;;21.38;65.95;95905.34;5035929;28;20090;-80
2022/07/05 10:10:02;;;;;;;4.53;3.38;;;;;;;21.63;65.22;95911.56;5031174;28;20068;-80
2022/07/05 10:12:30;;;;;;;4.55;3.30;;;;;;;21.48;58.92;95904.16;5046142;28;20037;-81
2022/07/05 10:14:59;;;;;;;7.55;3.50;;;;;;;21.76;73.82;95903.56;5038045;28;20036;-82
2022/07/05 10:17:27;;;;;;;8.85;3.75;;;;;;;21.95;65.30;95906.53;5035695;28;20041;-81
2022/07/05 10:19:55;;;;;;;8.88;3.88;;;;;;;21.93;64.84;95903.38;5047318;28;20037;-82
2022/07/05 10:22:21;;;;;;;8.23;3.35;;;;;;;;;;5047749;28;20041;-79
2022/07/05 10:24:48;;;;;;;5.80;3.08;;;;;;;22.32;67.61;95908.44;5055102;28;20044;-76
2022/07/05 10:27:14;;;;;;;6.35;3.58;;;;;;;22.40;68.27;95898.75;5047878;28;20048;-79
2022/07/05 10:29:40;;;;;;;4.90;3.10;;;;;;;22.75;67.33;95906.31;5053485;28;20717;-79
2022/07/05 10:32:11;;;;;;;7.47;3.42;;;;;;;22.66;70.17;95901.84;5051900;28;20044;-78
2022/07/05 10:34:37;;;;;;;6.47;3.15;;;;;;;22.25;60.32;95903.63;5047561;28;20633;-77
2022/07/05 10:37:04;;;;;;;4.35;3.05;;;;;;;22.18;58.33;95906.06;5027991;28;20049;-79
2022/07/05 10:39:30;;;;;;;5.60;3.28;;;;;;;22.90;60.44;95894.88;5039967;28;20319;-77
2022/07/05 10:41:58;;;;;;;5.45;3.50;;;;;;;23.21;54.87;95898.81;5050455;28;20052;-79
2022/07/05 10:44:32;;;;;;;4.90;3.10;;;;;;;23.71;57.15;95899.38;5051741;28;20048;-80
2022/07/05 10:47:12;;;;;;;5.93;3.33;;;;;;;23.74;54.69;95900.59;5048906;28;20040;-81
2022/07/05 10:49:38;;;;;;;6.50;3.40;;;;;;;23.32;56.15;95894.53;5030976;28;20041;-81
2022/07/05 10:52:04;;;;;;;7.78;3.40;;;;;;;23.64;59.61;95899.97;5047611;28;20041;-80
2022/07/05 10:54:31;;;;;;;5.00;3.15;;;;;;;23.68;57.69;95903.53;5043816;28;20050;-81
2022/07/05 10:57:23;;;;;;;5.05;3.00;;;;;;;24.35;51.05;95900.19;5047767;28;20041;-80
2022/07/05 11:00:09;;;;;;;4.70;3.15;;;;;;;24.88;51.21;95894.47;5032766;28;20064;-81
2022/07/05 11:02:35;;;;;;;6.88;3.20;;;;;;;25.52;47.12;95898.81;5050273;28;20069;-79
2022/07/05 11:05:01;;;;;;;7.90;2.80;;;;;;;25.36;49.82;95896.97;5046838;28;20076;-82
2022/07/05 11:07:59;;;;;;;8.93;3.33;;;;;;;24.62;57.74;95892.34;5045426;28;20045;-80
2022/07/05 11:10:25;;;;;;;5.97;3.15;;;;;;;24.06;52.07;95903.34;5034796;28;20510;-81
2022/07/05 11:12:50;;;;;;;6.03;3.10;;;;;;;23.85;50.45;95897.06;5054068;28;20032;-81
2022/07/05 11:15:16;;;;;;;3.90;2.80;;;;;;;23.40;52.68;95892.03;5055064;28;20127;-80
2022/07/05 11:17:42;;;;;;;4.25;2.90;;;;;;;24.43;52.89;95894.97;5036342;28;20048;-81
2022/07/05 11:20:34;;;;;;;4.57;3.05;;;;;;;25.22;49.89;95889.38;5036067;28;20037;-81
2022/07/05 11:23:03;;;;;;;7.22;3.20;;;;;;;25.70;52.70;95878.34;5056729;28;20081;-80
2022/07/05 11:25:31;;;;;;;6.97;3.00;;;;;;;26.11;51.35;95878.66;5034393;28;20048;-81
2022/07/05 11:28:07;;;;;;;5.45;2.60;;;;;;;26.08;44.37;95884.78;5050601;28;20045;-81
2022/07/05 11:30:48;;;;;;;5.80;2.78;;;;;;;25.72;43.61;95873.38;5051905;28;20045;-82